03:14
Airports
Links
Donate
Help keep this website running!
PayPal
Bitcoin
METAR
ETHF 180220Z 29002KT 5000 MIFG BR M04/M05 Q1027 WHT
Current Weather Conditions at ETHF
02:20:00 18-02-18
Altimeter:30.32 hg
Temp:-4.0°c 25°f
Dew point:-5.0°c 23°f
Wind:2 knots, 2.3 mph, 1 m/s, from 290°
Visibility:3.11 statute miles
Past METAR reports
01:20:00 18-02-18
Altimeter:30.32 hg
Temp:-3.0°c 27°f
Dew point:-4.0°c 25°f
Wind:2 knots, 2.3 mph, 1 m/s, from 300°
Visibility:4.35 statute miles
ETHF 180120Z 30002KT 7000 MIFG M03/M04 Q1027 WHT
00:20:00 18-02-18
Altimeter:30.30 hg
Temp:-2.0°c 28°f
Dew point:-4.0°c 25°f
Wind:3 knots, 3.5 mph, 2 m/s, from 310°
Visibility:4.35 statute miles
ETHF 180020Z 31003KT 7000 M02/M04 Q1026 WHT
VFR 23:20:00 17-02-18
Altimeter:30.30 hg
Temp:-2.0°c 28°f
Dew point:-3.0°c 27°f
Wind:4 knots, 4.6 mph, 2 m/s, from 310°
Visibility:6.21 statute miles
13000(FEW) A few
ETHF 172320Z 31004KT 9999 FEW130 M02/M03 Q1026 BLU+
VFR 22:20:00 17-02-18
Altimeter:30.30 hg
Temp:-1.0°c 30°f
Dew point:-3.0°c 27°f
Wind:3 knots, 3.5 mph, 2 m/s, from 310°
Visibility:6.21 statute miles
15000(FEW) A few
ETHF 172220Z 31003KT 9999 FEW150 M01/M03 Q1026 BLU+
VFR 21:20:00 17-02-18
Altimeter:30.27 hg
Temp:-1.0°c 30°f
Dew point:-3.0°c 27°f
Wind:4 knots, 4.6 mph, 2 m/s, from 310°
Visibility:6.21 statute miles
15000(SCT) Scattered
3200(SCT) Scattered
ETHF 172120Z 31004KT 9999 SCT032 SCT150 M01/M03 Q1025 BLU+
TAF
No TAF for ETHF
Forecast at ETHF
No Forecast Reports for ETHF